sensor_id;sensor_type;location;lat;lon;timestamp;pressure;altitude;pressure_sealevel;temperature
76898;BMP180;65856;52.178;21.176;2023-04-03T00:00:48;100958.40;;;2.70
76898;BMP180;65856;52.178;21.176;2023-04-03T00:03:17;100956.80;;;2.70
76898;BMP180;65856;52.178;21.176;2023-04-03T00:05:45;100961.40;;;2.70
76898;BMP180;65856;52.178;21.176;2023-04-03T00:08:14;100964.40;;;2.70
76898;BMP180;65856;52.178;21.176;2023-04-03T00:10:42;100968.00;;;2.66
76898;BMP180;65856;52.178;21.176;2023-04-03T00:13:10;100968.80;;;2.60
76898;BMP180;65856;52.178;21.176;2023-04-03T00:15:39;100968.60;;;2.60
76898;BMP180;65856;52.178;21.176;2023-04-03T00:18:08;100963.00;;;2.50
76898;BMP180;65856;52.178;21.176;2023-04-03T00:20:36;100965.40;;;2.50
76898;BMP180;65856;52.178;21.176;2023-04-03T00:23:04;100969.40;;;2.40
76898;BMP180;65856;52.178;21.176;2023-04-03T00:25:32;100976.80;;;2.38
76898;BMP180;65856;52.178;21.176;2023-04-03T00:28:00;100972.60;;;2.30
76898;BMP180;65856;52.178;21.176;2023-04-03T00:30:28;100972.20;;;2.20
76898;BMP180;65856;52.178;21.176;2023-04-03T00:32:57;100976.60;;;2.20
76898;BMP180;65856;52.178;21.176;2023-04-03T00:35:25;100974.80;;;2.20
76898;BMP180;65856;52.178;21.176;2023-04-03T00:37:54;100976.60;;;2.12
76898;BMP180;65856;52.178;21.176;2023-04-03T00:40:26;100975.20;;;2.10
76898;BMP180;65856;52.178;21.176;2023-04-03T00:42:58;100982.60;;;2.10
76898;BMP180;65856;52.178;21.176;2023-04-03T00:45:36;100977.80;;;2.00
76898;BMP180;65856;52.178;21.176;2023-04-03T00:48:09;100979.60;;;2.00
76898;BMP180;65856;52.178;21.176;2023-04-03T00:50:41;100975.40;;;1.96
76898;BMP180;65856;52.178;21.176;2023-04-03T00:53:16;100973.40;;;1.90
76898;BMP180;65856;52.178;21.176;2023-04-03T00:55:44;100967.40;;;1.90
76898;BMP180;65856;52.178;21.176;2023-04-03T00:58:18;100973.60;;;1.80
76898;BMP180;65856;52.178;21.176;2023-04-03T01:00:55;100979.60;;;1.80
76898;BMP180;65856;52.178;21.176;2023-04-03T01:03:25;100982.60;;;1.80
76898;BMP180;65856;52.178;21.176;2023-04-03T01:05:53;100982.60;;;1.78
76898;BMP180;65856;52.178;21.176;2023-04-03T01:08:21;100986.00;;;1.70
76898;BMP180;65856;52.178;21.176;2023-04-03T01:10:49;100988.20;;;1.60
76898;BMP180;65856;52.178;21.176;2023-04-03T01:13:27;100988.60;;;1.60
76898;BMP180;65856;52.178;21.176;2023-04-03T01:15:55;100992.20;;;1.70
76898;BMP180;65856;52.178;21.176;2023-04-03T01:18:24;100991.40;;;1.68
76898;BMP180;65856;52.178;21.176;2023-04-03T01:21:25;100998.00;;;1.60
76898;BMP180;65856;52.178;21.176;2023-04-03T01:24:17;100998.20;;;1.60
76898;BMP180;65856;52.178;21.176;2023-04-03T01:26:49;101002.00;;;1.52
76898;BMP180;65856;52.178;21.176;2023-04-03T01:29:18;101002.20;;;1.50
76898;BMP180;65856;52.178;21.176;2023-04-03T01:31:56;101009.80;;;1.40
76898;BMP180;65856;52.178;21.176;2023-04-03T01:34:25;101015.60;;;1.40
76898;BMP180;65856;52.178;21.176;2023-04-03T01:36:53;101019.00;;;1.34
76898;BMP180;65856;52.178;21.176;2023-04-03T01:39:22;101019.80;;;1.30
76898;BMP180;65856;52.178;21.176;2023-04-03T01:41:51;101024.20;;;1.30
76898;BMP180;65856;52.178;21.176;2023-04-03T01:44:19;101027.20;;;1.30
76898;BMP180;65856;52.178;21.176;2023-04-03T01:46:47;101018.60;;;1.20
76898;BMP180;65856;52.178;21.176;2023-04-03T01:49:15;101032.00;;;1.20
76898;BMP180;65856;52.178;21.176;2023-04-03T01:51:42;101029.40;;;1.20
76898;BMP180;65856;52.178;21.176;2023-04-03T01:54:11;101035.60;;;1.20
76898;BMP180;65856;52.178;21.176;2023-04-03T01:56:39;101036.20;;;1.20
76898;BMP180;65856;52.178;21.176;2023-04-03T01:59:06;101038.20;;;1.16
76898;BMP180;65856;52.178;21.176;2023-04-03T02:01:34;101040.60;;;1.10
76898;BMP180;65856;52.178;21.176;2023-04-03T02:04:02;101043.40;;;1.10
76898;BMP180;65856;52.178;21.176;2023-04-03T02:06:30;101046.80;;;1.10
76898;BMP180;65856;52.178;21.176;2023-04-03T02:08:58;101044.00;;;1.10
76898;BMP180;65856;52.178;21.176;2023-04-03T02:11:26;101047.80;;;1.10
76898;BMP180;65856;52.178;21.176;2023-04-03T02:13:54;101047.80;;;1.00
76898;BMP180;65856;52.178;21.176;2023-04-03T02:16:21;101049.40;;;1.00
76898;BMP180;65856;52.178;21.176;2023-04-03T02:18:49;101052.20;;;0.90
76898;BMP180;65856;52.178;21.176;2023-04-03T02:21:17;101054.20;;;0.90
76898;BMP180;65856;52.178;21.176;2023-04-03T02:23:45;101051.60;;;0.90
76898;BMP180;65856;52.178;21.176;2023-04-03T02:26:16;101050.80;;;0.90
76898;BMP180;65856;52.178;21.176;2023-04-03T02:28:44;101052.40;;;0.80
76898;BMP180;65856;52.178;21.176;2023-04-03T02:31:12;101052.80;;;0.70
76898;BMP180;65856;52.178;21.176;2023-04-03T02:33:40;101052.00;;;0.70
76898;BMP180;65856;52.178;21.176;2023-04-03T02:36:09;101061.60;;;0.70
76898;BMP180;65856;52.178;21.176;2023-04-03T02:38:37;101061.00;;;0.70
76898;BMP180;65856;52.178;21.176;2023-04-03T02:41:08;101059.20;;;0.68
76898;BMP180;65856;52.178;21.176;2023-04-03T02:43:37;101059.80;;;0.70
76898;BMP180;65856;52.178;21.176;2023-04-03T02:46:05;101060.40;;;0.70
76898;BMP180;65856;52.178;21.176;2023-04-03T02:48:34;101068.20;;;0.70
76898;BMP180;65856;52.178;21.176;2023-04-03T02:51:02;101067.00;;;0.66
76898;BMP180;65856;52.178;21.176;2023-04-03T02:53:30;101058.20;;;0.60
76898;BMP180;65856;52.178;21.176;2023-04-03T02:55:58;101061.20;;;0.50
76898;BMP180;65856;52.178;21.176;2023-04-03T02:58:26;101067.80;;;0.50
76898;BMP180;65856;52.178;21.176;2023-04-03T03:00:54;101070.80;;;0.50
76898;BMP180;65856;52.178;21.176;2023-04-03T03:03:22;101063.80;;;0.50
76898;BMP180;65856;52.178;21.176;2023-04-03T03:05:50;101063.20;;;0.50
76898;BMP180;65856;52.178;21.176;2023-04-03T03:08:28;101059.20;;;0.44
76898;BMP180;65856;52.178;21.176;2023-04-03T03:10:55;101067.80;;;0.44
76898;BMP180;65856;52.178;21.176;2023-04-03T03:13:24;101071.00;;;0.50
76898;BMP180;65856;52.178;21.176;2023-04-03T03:15:52;101065.40;;;0.48
76898;BMP180;65856;52.178;21.176;2023-04-03T03:18:20;101070.20;;;0.40
76898;BMP180;65856;52.178;21.176;2023-04-03T03:20:52;101071.00;;;0.40
76898;BMP180;65856;52.178;21.176;2023-04-03T03:23:20;101075.60;;;0.40
76898;BMP180;65856;52.178;21.176;2023-04-03T03:25:48;101071.80;;;0.36
76898;BMP180;65856;52.178;21.176;2023-04-03T03:28:16;101073.60;;;0.30
76898;BMP180;65856;52.178;21.176;2023-04-03T03:30:44;101070.60;;;0.30
76898;BMP180;65856;52.178;21.176;2023-04-03T03:33:12;101074.40;;;0.30
76898;BMP180;65856;52.178;21.176;2023-04-03T03:35:40;101074.60;;;0.20
76898;BMP180;65856;52.178;21.176;2023-04-03T03:38:08;101078.00;;;0.20
76898;BMP180;65856;52.178;21.176;2023-04-03T03:40:36;101079.20;;;0.10
76898;BMP180;65856;52.178;21.176;2023-04-03T03:43:04;101084.80;;;0.10
76898;BMP180;65856;52.178;21.176;2023-04-03T03:45:32;101084.20;;;0.14
76898;BMP180;65856;52.178;21.176;2023-04-03T03:48:00;101081.80;;;0.14
76898;BMP180;65856;52.178;21.176;2023-04-03T03:50:28;101080.20;;;0.20
76898;BMP180;65856;52.178;21.176;2023-04-03T03:52:56;101086.40;;;0.20
76898;BMP180;65856;52.178;21.176;2023-04-03T03:55:24;101089.40;;;0.10
76898;BMP180;65856;52.178;21.176;2023-04-03T03:57:52;101088.60;;;0.10
76898;BMP180;65856;52.178;21.176;2023-04-03T04:00:21;101095.00;;;0.10
76898;BMP180;65856;52.178;21.176;2023-04-03T04:02:49;101094.40;;;0.06
76898;BMP180;65856;52.178;21.176;2023-04-03T04:05:17;101097.20;;;0.00
76898;BMP180;65856;52.178;21.176;2023-04-03T04:07:45;101096.80;;;0.00
76898;BMP180;65856;52.178;21.176;2023-04-03T04:10:13;101105.40;;;0.00
76898;BMP180;65856;52.178;21.176;2023-04-03T04:12:41;101106.60;;;-0.06
76898;BMP180;65856;52.178;21.176;2023-04-03T04:15:11;101108.40;;;-0.10
76898;BMP180;65856;52.178;21.176;2023-04-03T04:17:39;101111.40;;;-0.10
76898;BMP180;65856;52.178;21.176;2023-04-03T04:20:09;101114.80;;;-0.10
76898;BMP180;65856;52.178;21.176;2023-04-03T04:22:37;101112.20;;;-0.20
76898;BMP180;65856;52.178;21.176;2023-04-03T04:25:06;101117.60;;;-0.20
76898;BMP180;65856;52.178;21.176;2023-04-03T04:27:34;101117.80;;;-0.20
76898;BMP180;65856;52.178;21.176;2023-04-03T04:30:02;101121.40;;;-0.10
76898;BMP180;65856;52.178;21.176;2023-04-03T04:32:30;101123.20;;;-0.14
76898;BMP180;65856;52.178;21.176;2023-04-03T04:34:58;101125.00;;;-0.10
76898;BMP180;65856;52.178;21.176;2023-04-03T04:37:26;101127.00;;;-0.10
76898;BMP180;65856;52.178;21.176;2023-04-03T04:39:54;101132.40;;;-0.10
76898;BMP180;65856;52.178;21.176;2023-04-03T04:42:22;101129.60;;;-0.10
76898;BMP180;65856;52.178;21.176;2023-04-03T04:44:50;101134.60;;;-0.10
76898;BMP180;65856;52.178;21.176;2023-04-03T04:47:18;101133.80;;;-0.10
76898;BMP180;65856;52.178;21.176;2023-04-03T04:49:46;101137.80;;;-0.10
76898;BMP180;65856;52.178;21.176;2023-04-03T04:52:15;101143.00;;;-0.10
76898;BMP180;65856;52.178;21.176;2023-04-03T04:54:43;101139.00;;;-0.10
76898;BMP180;65856;52.178;21.176;2023-04-03T04:57:10;101145.60;;;-0.10
76898;BMP180;65856;52.178;21.176;2023-04-03T04:59:38;101145.00;;;-0.10
76898;BMP180;65856;52.178;21.176;2023-04-03T05:02:06;101148.80;;;-0.10
76898;BMP180;65856;52.178;21.176;2023-04-03T05:04:34;101142.60;;;0.00
76898;BMP180;65856;52.178;21.176;2023-04-03T05:07:02;101153.80;;;0.00
76898;BMP180;65856;52.178;21.176;2023-04-03T05:09:30;101154.80;;;0.00
76898;BMP180;65856;52.178;21.176;2023-04-03T05:11:58;101147.80;;;0.00
76898;BMP180;65856;52.178;21.176;2023-04-03T05:14:26;101160.00;;;0.00
76898;BMP180;65856;52.178;21.176;2023-04-03T05:16:54;101158.20;;;0.14
76898;BMP180;65856;52.178;21.176;2023-04-03T05:19:22;101165.80;;;0.10
76898;BMP180;65856;52.178;21.176;2023-04-03T05:21:50;101165.40;;;0.10
76898;BMP180;65856;52.178;21.176;2023-04-03T05:24:18;101162.20;;;0.10
76898;BMP180;65856;52.178;21.176;2023-04-03T05:26:46;101167.40;;;0.10
76898;BMP180;65856;52.178;21.176;2023-04-03T05:29:13;101175.20;;;0.06
76898;BMP180;65856;52.178;21.176;2023-04-03T05:31:41;101172.40;;;0.10
76898;BMP180;65856;52.178;21.176;2023-04-03T05:34:09;101174.40;;;0.10
76898;BMP180;65856;52.178;21.176;2023-04-03T05:36:37;101178.80;;;0.10
76898;BMP180;65856;52.178;21.176;2023-04-03T05:39:05;101177.60;;;0.10
76898;BMP180;65856;52.178;21.176;2023-04-03T05:41:33;101186.20;;;0.10
76898;BMP180;65856;52.178;21.176;2023-04-03T05:44:01;101189.60;;;0.10
76898;BMP180;65856;52.178;21.176;2023-04-03T05:46:29;101187.40;;;0.28
76898;BMP180;65856;52.178;21.176;2023-04-03T05:48:57;101191.80;;;0.40
76898;BMP180;65856;52.178;21.176;2023-04-03T05:51:30;101189.20;;;0.50
76898;BMP180;65856;52.178;21.176;2023-04-03T05:54:08;101188.20;;;0.64
76898;BMP180;65856;52.178;21.176;2023-04-03T05:56:37;101180.60;;;0.90
76898;BMP180;65856;52.178;21.176;2023-04-03T05:59:05;101185.00;;;1.10
76898;BMP180;65856;52.178;21.176;2023-04-03T06:01:34;101178.40;;;1.38
76898;BMP180;65856;52.178;21.176;2023-04-03T06:04:02;101190.20;;;1.68
76898;BMP180;65856;52.178;21.176;2023-04-03T06:06:46;101188.80;;;2.06
76898;BMP180;65856;52.178;21.176;2023-04-03T06:09:15;101195.00;;;2.40
76898;BMP180;65856;52.178;21.176;2023-04-03T06:11:44;101192.40;;;2.80
76898;BMP180;65856;52.178;21.176;2023-04-03T06:14:12;101195.40;;;3.18
76898;BMP180;65856;52.178;21.176;2023-04-03T06:16:41;101188.40;;;3.40
76898;BMP180;65856;52.178;21.176;2023-04-03T06:19:10;101197.20;;;3.70
76898;BMP180;65856;52.178;21.176;2023-04-03T06:21:39;101205.00;;;4.02
76898;BMP180;65856;52.178;21.176;2023-04-03T06:24:07;101199.60;;;4.60
76898;BMP180;65856;52.178;21.176;2023-04-03T06:26:35;101201.80;;;4.70
76898;BMP180;65856;52.178;21.176;2023-04-03T06:29:03;101203.80;;;4.74
76898;BMP180;65856;52.178;21.176;2023-04-03T06:31:31;101196.20;;;5.04
76898;BMP180;65856;52.178;21.176;2023-04-03T06:33:59;101203.20;;;5.26
76898;BMP180;65856;52.178;21.176;2023-04-03T06:36:27;101204.60;;;5.50
76898;BMP180;65856;52.178;21.176;2023-04-03T06:38:56;101208.80;;;5.70
76898;BMP180;65856;52.178;21.176;2023-04-03T06:41:24;101207.40;;;5.96
76898;BMP180;65856;52.178;21.176;2023-04-03T06:43:53;101210.40;;;6.10
76898;BMP180;65856;52.178;21.176;2023-04-03T06:46:25;101212.40;;;6.30
76898;BMP180;65856;52.178;21.176;2023-04-03T06:48:54;101211.20;;;6.42
76898;BMP180;65856;52.178;21.176;2023-04-03T06:51:24;101214.00;;;6.60
76898;BMP180;65856;52.178;21.176;2023-04-03T06:53:55;101211.00;;;7.06
76898;BMP180;65856;52.178;21.176;2023-04-03T06:56:23;101223.40;;;7.20
76898;BMP180;65856;52.178;21.176;2023-04-03T06:58:53;101223.80;;;7.40
76898;BMP180;65856;52.178;21.176;2023-04-03T07:01:22;101227.80;;;7.50
76898;BMP180;65856;52.178;21.176;2023-04-03T07:03:50;101228.40;;;7.50
76898;BMP180;65856;52.178;21.176;2023-04-03T07:06:19;101230.20;;;7.60
76898;BMP180;65856;52.178;21.176;2023-04-03T07:08:48;101231.80;;;7.50
76898;BMP180;65856;52.178;21.176;2023-04-03T07:11:17;101240.60;;;7.50
76898;BMP180;65856;52.178;21.176;2023-04-03T07:13:45;101232.80;;;7.62
76898;BMP180;65856;52.178;21.176;2023-04-03T07:16:13;101243.60;;;7.80
76898;BMP180;65856;52.178;21.176;2023-04-03T07:18:41;101244.60;;;7.80
76898;BMP180;65856;52.178;21.176;2023-04-03T07:21:09;101241.60;;;7.96
76898;BMP180;65856;52.178;21.176;2023-04-03T07:23:38;101246.20;;;8.10
76898;BMP180;65856;52.178;21.176;2023-04-03T07:26:07;101255.00;;;8.00
76898;BMP180;65856;52.178;21.176;2023-04-03T07:28:35;101249.40;;;8.12
76898;BMP180;65856;52.178;21.176;2023-04-03T07:31:06;101251.40;;;8.20
76898;BMP180;65856;52.178;21.176;2023-04-03T07:33:35;101262.80;;;8.20
76898;BMP180;65856;52.178;21.176;2023-04-03T07:36:05;101252.60;;;8.00
76898;BMP180;65856;52.178;21.176;2023-04-03T07:38:35;101257.80;;;7.90
76898;BMP180;65856;52.178;21.176;2023-04-03T07:41:04;101264.60;;;8.00
76898;BMP180;65856;52.178;21.176;2023-04-03T07:43:33;101267.80;;;8.20
76898;BMP180;65856;52.178;21.176;2023-04-03T07:46:01;101267.60;;;8.40
76898;BMP180;65856;52.178;21.176;2023-04-03T07:48:32;101268.40;;;8.60
76898;BMP180;65856;52.178;21.176;2023-04-03T07:51:02;101272.40;;;8.26
76898;BMP180;65856;52.178;21.176;2023-04-03T07:53:30;101274.00;;;8.26
76898;BMP180;65856;52.178;21.176;2023-04-03T07:55:59;101260.00;;;8.08
76898;BMP180;65856;52.178;21.176;2023-04-03T07:58:27;101265.80;;;8.10
76898;BMP180;65856;52.178;21.176;2023-04-03T08:00:55;101266.20;;;8.14
76898;BMP180;65856;52.178;21.176;2023-04-03T08:03:23;101276.40;;;8.10
76898;BMP180;65856;52.178;21.176;2023-04-03T08:05:51;101276.60;;;7.90
76898;BMP180;65856;52.178;21.176;2023-04-03T08:08:23;101270.40;;;7.70
76898;BMP180;65856;52.178;21.176;2023-04-03T08:10:53;101279.60;;;7.70
76898;BMP180;65856;52.178;21.176;2023-04-03T08:13:22;101263.20;;;7.20
76898;BMP180;65856;52.178;21.176;2023-04-03T08:15:50;101264.80;;;7.22
76898;BMP180;65856;52.178;21.176;2023-04-03T08:18:19;101276.00;;;7.50
76898;BMP180;65856;52.178;21.176;2023-04-03T08:20:49;101271.00;;;7.60
76898;BMP180;65856;52.178;21.176;2023-04-03T08:23:17;101265.20;;;7.70
76898;BMP180;65856;52.178;21.176;2023-04-03T08:25:45;101270.80;;;7.88
76898;BMP180;65856;52.178;21.176;2023-04-03T08:28:13;101276.00;;;8.06
76898;BMP180;65856;52.178;21.176;2023-04-03T08:30:42;101278.00;;;8.10
76898;BMP180;65856;52.178;21.176;2023-04-03T08:33:11;101277.40;;;8.04
76898;BMP180;65856;52.178;21.176;2023-04-03T08:35:42;101285.60;;;8.04
76898;BMP180;65856;52.178;21.176;2023-04-03T08:38:11;101278.00;;;8.10
76898;BMP180;65856;52.178;21.176;2023-04-03T08:40:39;101288.20;;;8.12
76898;BMP180;65856;52.178;21.176;2023-04-03T08:43:30;101285.20;;;8.00
76898;BMP180;65856;52.178;21.176;2023-04-03T08:46:06;101293.40;;;8.30
76898;BMP180;65856;52.178;21.176;2023-04-03T08:48:40;101293.40;;;8.10
76898;BMP180;65856;52.178;21.176;2023-04-03T08:51:15;101291.40;;;7.74
76898;BMP180;65856;52.178;21.176;2023-04-03T08:53:55;101285.20;;;7.88
76898;BMP180;65856;52.178;21.176;2023-04-03T08:56:25;101288.60;;;8.00
76898;BMP180;65856;52.178;21.176;2023-04-03T08:58:59;101284.00;;;7.80
76898;BMP180;65856;52.178;21.176;2023-04-03T09:01:35;101301.20;;;7.54
76898;BMP180;65856;52.178;21.176;2023-04-03T09:04:10;101293.60;;;7.14
76898;BMP180;65856;52.178;21.176;2023-04-03T09:06:41;101286.80;;;6.86
76898;BMP180;65856;52.178;21.176;2023-04-03T09:09:16;101274.80;;;6.90
76898;BMP180;65856;52.178;21.176;2023-04-03T09:12:03;101293.60;;;7.10
76898;BMP180;65856;52.178;21.176;2023-04-03T09:14:42;101284.40;;;7.44
76898;BMP180;65856;52.178;21.176;2023-04-03T09:17:21;101298.40;;;7.52
76898;BMP180;65856;52.178;21.176;2023-04-03T09:20:05;101288.80;;;7.40
76898;BMP180;65856;52.178;21.176;2023-04-03T09:22:42;101284.60;;;7.70
76898;BMP180;65856;52.178;21.176;2023-04-03T09:25:16;101289.20;;;7.82
76898;BMP180;65856;52.178;21.176;2023-04-03T09:27:45;101290.00;;;8.20
76898;BMP180;65856;52.178;21.176;2023-04-03T09:30:17;101286.20;;;8.60
76898;BMP180;65856;52.178;21.176;2023-04-03T09:32:48;101294.40;;;8.68
76898;BMP180;65856;52.178;21.176;2023-04-03T09:35:24;101310.40;;;8.42
76898;BMP180;65856;52.178;21.176;2023-04-03T09:37:58;101314.00;;;7.84
76898;BMP180;65856;52.178;21.176;2023-04-03T09:40:35;101301.80;;;7.40
76898;BMP180;65856;52.178;21.176;2023-04-03T09:43:26;101305.00;;;7.42
76898;BMP180;65856;52.178;21.176;2023-04-03T09:45:56;101298.60;;;7.64
76898;BMP180;65856;52.178;21.176;2023-04-03T09:48:25;101296.20;;;7.82
76898;BMP180;65856;52.178;21.176;2023-04-03T09:51:01;101304.20;;;8.00
76898;BMP180;65856;52.178;21.176;2023-04-03T09:53:39;101298.20;;;8.00
76898;BMP180;65856;52.178;21.176;2023-04-03T09:56:24;101301.40;;;7.82
76898;BMP180;65856;52.178;21.176;2023-04-03T09:59:08;101292.60;;;7.70
76898;BMP180;65856;52.178;21.176;2023-04-03T10:01:44;101301.00;;;7.96
76898;BMP180;65856;52.178;21.176;2023-04-03T10:04:24;101320.00;;;8.10
76898;BMP180;65856;52.178;21.176;2023-04-03T10:06:55;101315.80;;;7.80
76898;BMP180;65856;52.178;21.176;2023-04-03T10:09:27;101318.20;;;7.54
76898;BMP180;65856;52.178;21.176;2023-04-03T10:12:05;101306.60;;;7.30
76898;BMP180;65856;52.178;21.176;2023-04-03T10:14:36;101315.60;;;7.30
76898;BMP180;65856;52.178;21.176;2023-04-03T10:17:18;101310.00;;;7.40
76898;BMP180;65856;52.178;21.176;2023-04-03T10:19:55;101310.40;;;7.78
76898;BMP180;65856;52.178;21.176;2023-04-03T10:22:36;101308.20;;;7.82
76898;BMP180;65856;52.178;21.176;2023-04-03T10:25:17;101305.20;;;7.48
76898;BMP180;65856;52.178;21.176;2023-04-03T10:27:57;101315.80;;;7.04
76898;BMP180;65856;52.178;21.176;2023-04-03T10:30:44;101322.60;;;6.90
76898;BMP180;65856;52.178;21.176;2023-04-03T10:33:31;101319.80;;;6.70
76898;BMP180;65856;52.178;21.176;2023-04-03T10:36:15;101311.00;;;6.82
76898;BMP180;65856;52.178;21.176;2023-04-03T10:38:57;101310.80;;;7.00
76898;BMP180;65856;52.178;21.176;2023-04-03T10:41:41;101305.60;;;6.90
76898;BMP180;65856;52.178;21.176;2023-04-03T10:44:23;101305.60;;;6.80
76898;BMP180;65856;52.178;21.176;2023-04-03T10:47:04;101311.20;;;6.70
76898;BMP180;65856;52.178;21.176;2023-04-03T10:49:50;101305.20;;;6.90
76898;BMP180;65856;52.178;21.176;2023-04-03T10:52:31;101307.80;;;7.00
76898;BMP180;65856;52.178;21.176;2023-04-03T10:55:10;101313.40;;;6.90
76898;BMP180;65856;52.178;21.176;2023-04-03T10:57:43;101310.40;;;6.76
76898;BMP180;65856;52.178;21.176;2023-04-03T11:00:21;101312.20;;;6.80
76898;BMP180;65856;52.178;21.176;2023-04-03T11:02:55;101300.60;;;6.88
76898;BMP180;65856;52.178;21.176;2023-04-03T11:05:34;101300.80;;;7.10
76898;BMP180;65856;52.178;21.176;2023-04-03T11:08:12;101299.60;;;7.20
76898;BMP180;65856;52.178;21.176;2023-04-03T11:10:45;101295.40;;;7.30
76898;BMP180;65856;52.178;21.176;2023-04-03T11:13:18;101301.80;;;7.28
76898;BMP180;65856;52.178;21.176;2023-04-03T11:15:47;101293.80;;;7.50
76898;BMP180;65856;52.178;21.176;2023-04-03T11:18:19;101292.80;;;7.30
76898;BMP180;65856;52.178;21.176;2023-04-03T11:20:58;101291.20;;;7.10
76898;BMP180;65856;52.178;21.176;2023-04-03T11:23:33;101305.40;;;7.20
76898;BMP180;65856;52.178;21.176;2023-04-03T11:26:11;101295.20;;;7.10
76898;BMP180;65856;52.178;21.176;2023-04-03T11:28:41;101292.60;;;7.10
76898;BMP180;65856;52.178;21.176;2023-04-03T11:31:23;101290.20;;;7.10
76898;BMP180;65856;52.178;21.176;2023-04-03T11:34:05;101289.80;;;7.02
76898;BMP180;65856;52.178;21.176;2023-04-03T11:36:44;101289.40;;;7.10
76898;BMP180;65856;52.178;21.176;2023-04-03T11:39:24;101290.80;;;7.10
76898;BMP180;65856;52.178;21.176;2023-04-03T11:41:53;101292.20;;;6.94
76898;BMP180;65856;52.178;21.176;2023-04-03T11:44:35;101293.20;;;6.90
76898;BMP180;65856;52.178;21.176;2023-04-03T11:47:06;101297.60;;;6.90
76898;BMP180;65856;52.178;21.176;2023-04-03T11:49:58;101284.80;;;7.00
76898;BMP180;65856;52.178;21.176;2023-04-03T11:53:02;101286.40;;;7.10
76898;BMP180;65856;52.178;21.176;2023-04-03T11:56:30;101283.20;;;7.00
76898;BMP180;65856;52.178;21.176;2023-04-03T11:59:22;101288.80;;;7.10
76898;BMP180;65856;52.178;21.176;2023-04-03T12:01:52;101288.80;;;6.82
76898;BMP180;65856;52.178;21.176;2023-04-03T12:04:24;101292.60;;;6.60
76898;BMP180;65856;52.178;21.176;2023-04-03T12:07:20;101291.40;;;6.60
76898;BMP180;65856;52.178;21.176;2023-04-03T12:10:14;101289.80;;;6.70
76898;BMP180;65856;52.178;21.176;2023-04-03T12:12:56;101285.40;;;6.80
76898;BMP180;65856;52.178;21.176;2023-04-03T12:15:50;101291.20;;;6.80
76898;BMP180;65856;52.178;21.176;2023-04-03T12:18:58;101285.40;;;6.60
76898;BMP180;65856;52.178;21.176;2023-04-03T12:22:15;101277.80;;;6.50
76898;BMP180;65856;52.178;21.176;2023-04-03T12:24:45;101281.40;;;6.56
76898;BMP180;65856;52.178;21.176;2023-04-03T12:27:28;101271.00;;;6.64
76898;BMP180;65856;52.178;21.176;2023-04-03T12:30:06;101276.60;;;6.90
76898;BMP180;65856;52.178;21.176;2023-04-03T12:32:55;101279.20;;;6.90
76898;BMP180;65856;52.178;21.176;2023-04-03T12:35:31;101277.40;;;6.80
76898;BMP180;65856;52.178;21.176;2023-04-03T12:38:37;101279.20;;;6.70
76898;BMP180;65856;52.178;21.176;2023-04-03T12:41:23;101275.00;;;6.60
76898;BMP180;65856;52.178;21.176;2023-04-03T12:44:17;101274.80;;;6.62
76898;BMP180;65856;52.178;21.176;2023-04-03T12:46:51;101274.00;;;6.80
76898;BMP180;65856;52.178;21.176;2023-04-03T12:49:35;101266.00;;;6.72
76898;BMP180;65856;52.178;21.176;2023-04-03T12:52:17;101287.40;;;6.60
76898;BMP180;65856;52.178;21.176;2023-04-03T12:54:47;101285.20;;;6.40
76898;BMP180;65856;52.178;21.176;2023-04-03T12:57:20;101279.00;;;6.36
76898;BMP180;65856;52.178;21.176;2023-04-03T12:59:49;101273.80;;;6.48
76898;BMP180;65856;52.178;21.176;2023-04-03T13:02:25;101273.20;;;6.50
76898;BMP180;65856;52.178;21.176;2023-04-03T13:04:57;101264.60;;;6.60
76898;BMP180;65856;52.178;21.176;2023-04-03T13:07:30;101270.60;;;6.60
76898;BMP180;65856;52.178;21.176;2023-04-03T13:10:13;101275.60;;;6.50
76898;BMP180;65856;52.178;21.176;2023-04-03T13:12:48;101284.40;;;6.30
76898;BMP180;65856;52.178;21.176;2023-04-03T13:15:20;101274.00;;;6.24
76898;BMP180;65856;52.178;21.176;2023-04-03T13:17:50;101271.20;;;6.26
76898;BMP180;65856;52.178;21.176;2023-04-03T13:20:24;101272.80;;;6.30
76898;BMP180;65856;52.178;21.176;2023-04-03T13:23:00;101270.80;;;6.30
76898;BMP180;65856;52.178;21.176;2023-04-03T13:25:33;101275.40;;;6.30
76898;BMP180;65856;52.178;21.176;2023-04-03T13:28:07;101273.40;;;6.20
76898;BMP180;65856;52.178;21.176;2023-04-03T13:30:40;101262.60;;;6.10
76898;BMP180;65856;52.178;21.176;2023-04-03T13:33:22;101274.20;;;6.06
76898;BMP180;65856;52.178;21.176;2023-04-03T13:35:57;101276.40;;;6.00
76898;BMP180;65856;52.178;21.176;2023-04-03T13:38:30;101270.80;;;6.00
76898;BMP180;65856;52.178;21.176;2023-04-03T13:41:03;101266.40;;;6.10
76898;BMP180;65856;52.178;21.176;2023-04-03T13:43:35;101266.40;;;6.20
76898;BMP180;65856;52.178;21.176;2023-04-03T13:46:24;101264.60;;;6.10
76898;BMP180;65856;52.178;21.176;2023-04-03T13:48:55;101266.40;;;6.10
76898;BMP180;65856;52.178;21.176;2023-04-03T13:51:27;101266.20;;;6.10
76898;BMP180;65856;52.178;21.176;2023-04-03T13:53:59;101267.40;;;6.10
76898;BMP180;65856;52.178;21.176;2023-04-03T13:56:33;101267.20;;;6.10
76898;BMP180;65856;52.178;21.176;2023-04-03T13:59:22;101267.20;;;6.10
76898;BMP180;65856;52.178;21.176;2023-04-03T14:01:54;101269.20;;;6.20
76898;BMP180;65856;52.178;21.176;2023-04-03T14:04:25;101275.20;;;6.20
76898;BMP180;65856;52.178;21.176;2023-04-03T14:06:56;101272.60;;;6.28
76898;BMP180;65856;52.178;21.176;2023-04-03T14:09:26;101273.00;;;6.26
76898;BMP180;65856;52.178;21.176;2023-04-03T14:11:58;101276.20;;;6.20
76898;BMP180;65856;52.178;21.176;2023-04-03T14:14:33;101275.40;;;6.18
76898;BMP180;65856;52.178;21.176;2023-04-03T14:17:13;101271.00;;;6.10
76898;BMP180;65856;52.178;21.176;2023-04-03T14:19:41;101274.40;;;6.10
76898;BMP180;65856;52.178;21.176;2023-04-03T14:22:17;101269.80;;;6.20
76898;BMP180;65856;52.178;21.176;2023-04-03T14:24:46;101267.00;;;6.20
76898;BMP180;65856;52.178;21.176;2023-04-03T14:27:20;101268.40;;;6.20